Time,TemperatureF,DewpointF,PressureIn,WindDirection,WindDirectionDegrees,WindSpeedMPH,WindSpeedGustMPH,Humidity,HourlyPrecipIn,Conditions,Clouds,dailyrainin,SoftwareType,DateUTC
2013-02-28 00:02:00,64.0,64.0,29.95,WSW,242,0.0,5.0,99,0.00,,,0.79,,2013-02-28 05:02:00,
2013-02-28 00:11:00,64.0,64.0,29.95,WSW,242,0.0,5.0,99,0.00,,,0.79,,2013-02-28 05:11:00,
2013-02-28 00:22:00,64.0,64.0,29.95,SW,235,2.0,5.0,99,0.00,,,0.79,,2013-02-28 05:22:00,
2013-02-28 00:32:00,64.0,64.0,29.93,WSW,237,3.0,6.0,99,0.00,,,0.79,,2013-02-28 05:32:00,
2013-02-28 00:42:00,64.0,64.0,29.93,WSW,237,3.0,6.0,99,0.00,,,0.79,,2013-02-28 05:42:00,
2013-02-28 00:52:00,64.0,64.0,29.93,WSW,237,3.0,6.0,99,0.00,,,0.79,,2013-02-28 05:52:00,
2013-02-28 01:01:00,64.0,64.0,29.93,SW,220,1.0,2.0,99,0.00,,,0.79,,2013-02-28 06:01:00,
2013-02-28 01:11:00,64.0,64.0,29.93,SW,220,1.0,2.0,99,0.00,,,0.79,,2013-02-28 06:11:00,
2013-02-28 01:22:00,64.0,64.0,29.93,North,351,2.0,5.0,99,0.00,,,0.79,,2013-02-28 06:22:00,
2013-02-28 01:32:00,64.0,64.0,29.93,SW,230,1.0,5.0,99,0.00,,,0.79,,2013-02-28 06:32:00,
2013-02-28 01:42:00,64.0,64.0,29.93,SW,230,1.0,5.0,99,0.00,,,0.79,,2013-02-28 06:42:00,
2013-02-28 01:52:00,64.0,64.0,29.92,SSW,213,2.0,3.0,99,0.00,,,0.79,,2013-02-28 06:52:00,
2013-02-28 02:01:00,64.0,64.0,29.92,SSW,201,2.0,5.0,99,0.00,,,0.79,,2013-02-28 07:01:00,
2013-02-28 02:11:00,64.0,64.0,29.92,SSW,201,2.0,5.0,99,0.00,,,0.79,,2013-02-28 07:11:00,
2013-02-28 02:21:00,64.0,64.0,29.91,ENE,57,2.0,3.0,99,0.00,,,0.79,,2013-02-28 07:21:00,
2013-02-28 02:32:00,63.0,63.0,29.91,NNW,329,2.0,5.0,99,0.00,,,0.79,,2013-02-28 07:32:00,
2013-02-28 02:42:00,63.0,63.0,29.91,NNW,329,2.0,5.0,99,0.00,,,0.79,,2013-02-28 07:42:00,
2013-02-28 02:52:00,63.0,63.0,29.91,NW,324,2.0,6.0,99,0.00,,,0.79,,2013-02-28 07:52:00,
2013-02-28 03:01:00,63.0,63.0,29.91,NW,319,3.0,5.0,99,0.00,,,0.79,,2013-02-28 08:01:00,
2013-02-28 03:11:00,63.0,63.0,29.91,NW,319,3.0,5.0,99,0.00,,,0.79,,2013-02-28 08:11:00,
2013-02-28 03:22:00,62.0,62.0,29.91,WNW,300,2.0,5.0,99,0.00,,,0.79,,2013-02-28 08:22:00,
2013-02-28 03:32:00,62.0,62.0,29.91,SW,233,3.0,5.0,99,0.00,,,0.79,,2013-02-28 08:32:00,
2013-02-28 03:42:00,62.0,62.0,29.91,SW,233,3.0,5.0,99,0.00,,,0.79,,2013-02-28 08:42:00,
2013-02-28 03:53:00,61.0,60.0,29.91,NE,49,3.0,7.0,97,0.00,,,0.79,,2013-02-28 08:53:00,
2013-02-28 04:03:00,61.0,60.0,29.92,ENE,76,2.0,3.0,96,0.00,,,0.79,,2013-02-28 09:03:00,
2013-02-28 04:12:00,61.0,60.0,29.92,ENE,76,2.0,3.0,96,0.00,,,0.79,,2013-02-28 09:12:00,
2013-02-28 04:22:00,60.0,58.0,29.91,West,260,1.0,6.0,94,0.00,,,0.79,,2013-02-28 09:22:00,
2013-02-28 04:32:00,59.0,57.0,29.92,SE,139,3.0,5.0,92,0.00,,,0.79,,2013-02-28 09:32:00,
2013-02-28 04:42:00,59.0,57.0,29.92,SE,139,3.0,5.0,92,0.00,,,0.79,,2013-02-28 09:42:00,
2013-02-28 04:52:00,59.0,56.0,29.93,North,2,3.0,6.0,89,0.00,,,0.79,,2013-02-28 09:52:00,
2013-02-28 05:02:00,58.0,54.0,29.92,WNW,302,2.0,5.0,88,0.00,,,0.79,,2013-02-28 10:02:00,
2013-02-28 05:11:00,58.0,54.0,29.93,NW,306,3.0,6.0,86,0.00,,,0.79,,2013-02-28 10:11:00,
2013-02-28 05:22:00,58.0,54.0,29.93,NW,306,3.0,6.0,86,0.00,,,0.79,,2013-02-28 10:22:00,
2013-02-28 05:32:00,58.0,54.0,29.94,ESE,105,3.0,7.0,85,0.00,,,0.79,,2013-02-28 10:32:00,
2013-02-28 05:42:00,58.0,54.0,29.94,ESE,105,3.0,7.0,85,0.00,,,0.79,,2013-02-28 10:42:00,
2013-02-28 05:52:00,58.0,53.0,29.93,South,170,3.0,7.0,84,0.00,,,0.79,,2013-02-28 10:52:00,
2013-02-28 06:02:00,58.0,54.0,29.94,WNW,295,2.0,6.0,85,0.00,,,0.79,,2013-02-28 11:02:00,
2013-02-28 06:11:00,58.0,54.0,29.94,WNW,295,2.0,6.0,85,0.00,,,0.79,,2013-02-28 11:11:00,
2013-02-28 06:22:00,58.0,54.0,29.94,NNE,21,2.0,5.0,86,0.00,,,0.79,,2013-02-28 11:22:00,
2013-02-28 06:32:00,58.0,54.0,29.95,WSW,251,2.0,6.0,86,0.00,,,0.79,,2013-02-28 11:32:00,
2013-02-28 06:42:00,58.0,54.0,29.95,WSW,251,2.0,6.0,86,0.00,,,0.79,,2013-02-28 11:42:00,
2013-02-28 06:52:00,57.0,53.0,29.95,West,272,2.0,5.0,87,0.00,,,0.79,,2013-02-28 11:52:00,
2013-02-28 07:02:00,57.0,53.0,29.96,NE,42,2.0,2.0,87,0.00,,,0.79,,2013-02-28 12:02:00,
2013-02-28 07:11:00,57.0,53.0,29.96,NE,42,2.0,2.0,87,0.00,,,0.79,,2013-02-28 12:11:00,
2013-02-28 07:22:00,57.0,53.0,29.96,NNW,328,1.0,3.0,87,0.00,,,0.79,,2013-02-28 12:22:00,
2013-02-28 07:32:00,58.0,54.0,29.96,NW,309,2.0,5.0,85,0.00,,,0.79,,2013-02-28 12:32:00,
2013-02-28 07:42:00,58.0,54.0,29.96,NW,309,2.0,5.0,85,0.00,,,0.79,,2013-02-28 12:42:00,
2013-02-28 07:52:00,58.0,54.0,29.97,South,189,3.0,5.0,85,0.00,,,0.79,,2013-02-28 12:52:00,
2013-02-28 08:02:00,58.0,54.0,29.98,South,175,2.0,5.0,85,0.00,,,0.79,,2013-02-28 13:02:00,
2013-02-28 08:11:00,59.0,54.0,29.98,NNW,347,2.0,3.0,84,0.00,,,0.79,,2013-02-28 13:11:00,
2013-02-28 08:22:00,59.0,54.0,29.98,NNW,347,2.0,3.0,84,0.00,,,0.79,,2013-02-28 13:22:00,
2013-02-28 08:32:00,60.0,54.0,29.98,SW,214,3.0,6.0,80,0.00,,,0.79,,2013-02-28 13:32:00,
2013-02-28 08:42:00,60.0,54.0,29.98,SW,214,3.0,6.0,80,0.00,,,0.79,,2013-02-28 13:42:00,
2013-02-28 08:52:00,60.0,54.0,29.99,ENE,71,3.0,7.0,80,0.00,,,0.79,,2013-02-28 13:52:00,
2013-02-28 09:01:00,61.0,54.0,29.99,NW,325,2.0,7.0,79,0.00,,,0.79,,2013-02-28 14:01:00,
2013-02-28 09:11:00,62.0,54.0,29.99,NNW,340,4.0,7.0,76,0.00,,,0.79,,2013-02-28 14:11:00,
2013-02-28 09:22:00,62.0,54.0,29.99,NNW,340,4.0,7.0,76,0.00,,,0.79,,2013-02-28 14:22:00,
2013-02-28 09:32:00,63.0,54.0,30.00,NW,309,5.0,7.0,73,0.00,,,0.79,,2013-02-28 14:32:00,
2013-02-28 09:42:00,66.0,55.0,30.00,WSW,240,3.0,6.0,68,0.00,,,0.79,,2013-02-28 14:42:00,
2013-02-28 09:52:00,66.0,55.0,30.00,WSW,240,3.0,6.0,68,0.00,,,0.79,,2013-02-28 14:52:00,
2013-02-28 10:02:00,65.0,55.0,30.00,WSW,242,3.0,7.0,69,0.00,,,0.79,,2013-02-28 15:02:00,
2013-02-28 10:11:00,64.0,53.0,30.00,North,355,4.0,6.0,68,0.00,,,0.79,,2013-02-28 15:11:00,
2013-02-28 10:22:00,64.0,53.0,30.00,North,355,4.0,6.0,68,0.00,,,0.79,,2013-02-28 15:22:00,
2013-02-28 10:32:00,65.0,53.0,30.00,NW,314,4.0,7.0,65,0.00,,,0.79,,2013-02-28 15:32:00,
2013-02-28 10:42:00,65.0,53.0,30.00,NW,314,4.0,7.0,65,0.00,,,0.79,,2013-02-28 15:42:00,
2013-02-28 10:52:00,68.0,54.0,30.00,NW,304,4.0,7.0,60,0.00,,,0.79,,2013-02-28 15:52:00,
2013-02-28 11:02:00,69.0,54.0,30.00,NNE,13,3.0,7.0,58,0.00,,,0.79,,2013-02-28 16:02:00,
2013-02-28 11:12:00,68.0,53.0,30.00,WSW,237,3.0,7.0,59,0.00,,,0.79,,2013-02-28 16:12:00,
2013-02-28 11:22:00,68.0,53.0,30.00,WSW,237,3.0,7.0,59,0.00,,,0.79,,2013-02-28 16:22:00,
2013-02-28 11:32:00,67.0,52.0,30.00,West,267,3.0,7.0,59,0.00,,,0.79,,2013-02-28 16:32:00,
2013-02-28 11:42:00,67.0,52.0,30.00,West,267,3.0,7.0,59,0.00,,,0.79,,2013-02-28 16:42:00,
2013-02-28 11:52:00,69.0,53.0,29.99,NNE,23,3.0,7.0,56,0.00,,,0.79,,2013-02-28 16:52:00,
2013-02-28 12:02:00,68.0,51.0,29.99,NNW,336,3.0,6.0,54,0.00,,,0.79,,2013-02-28 17:02:00,
2013-02-28 12:12:00,68.0,52.0,29.98,South,169,3.0,7.0,56,0.00,,,0.79,,2013-02-28 17:12:00,
2013-02-28 12:22:00,68.0,52.0,29.98,South,169,3.0,7.0,56,0.00,,,0.79,,2013-02-28 17:22:00,
2013-02-28 12:32:00,67.0,51.0,29.98,WNW,285,3.0,6.0,57,0.00,,,0.79,,2013-02-28 17:32:00,
2013-02-28 12:42:00,67.0,51.0,29.98,WNW,285,3.0,6.0,57,0.00,,,0.79,,2013-02-28 17:42:00,
2013-02-28 12:53:00,68.0,52.0,29.98,North,4,3.0,6.0,56,0.00,,,0.79,,2013-02-28 17:53:00,
2013-02-28 13:02:00,66.0,52.0,29.98,WSW,245,3.0,6.0,60,0.00,,,0.79,,2013-02-28 18:02:00,
2013-02-28 13:11:00,66.0,52.0,29.97,NW,316,1.0,5.0,61,0.00,,,0.79,,2013-02-28 18:11:00,
2013-02-28 13:22:00,66.0,52.0,29.97,NW,316,1.0,5.0,61,0.00,,,0.79,,2013-02-28 18:22:00,
2013-02-28 13:32:00,66.0,51.0,29.96,NNW,336,1.0,5.0,59,0.00,,,0.79,,2013-02-28 18:32:00,
2013-02-28 13:42:00,68.0,53.0,29.96,ESE,114,2.0,3.0,58,0.00,,,0.79,,2013-02-28 18:42:00,
2013-02-28 13:52:00,68.0,53.0,29.96,ESE,114,2.0,3.0,58,0.00,,,0.79,,2013-02-28 18:52:00,
2013-02-28 14:02:00,68.0,53.0,29.94,WNW,296,1.0,2.0,59,0.00,,,0.79,,2013-02-28 19:02:00,
2013-02-28 14:11:00,66.0,53.0,29.93,WSW,251,2.0,3.0,62,0.00,,,0.79,,2013-02-28 19:11:00,
2013-02-28 14:22:00,66.0,53.0,29.93,WSW,251,2.0,3.0,62,0.00,,,0.79,,2013-02-28 19:22:00,
2013-02-28 14:32:00,68.0,51.0,29.93,SW,216,0.0,2.0,55,0.00,,,0.79,,2013-02-28 19:32:00,
2013-02-28 14:42:00,68.0,51.0,29.93,SW,216,0.0,2.0,55,0.00,,,0.79,,2013-02-28 19:42:00,
2013-02-28 14:52:00,70.0,52.0,29.93,North,0,2.0,3.0,53,0.00,,,0.79,,2013-02-28 19:52:00,
2013-02-28 15:01:00,70.0,49.0,29.93,SSW,204,2.0,3.0,48,0.00,,,0.79,,2013-02-28 20:01:00,
2013-02-28 15:12:00,70.0,49.0,29.93,SSW,204,2.0,3.0,48,0.00,,,0.79,,2013-02-28 20:12:00,
2013-02-28 15:22:00,70.0,48.0,29.93,SW,225,0.0,3.0,46,0.00,,,0.79,,2013-02-28 20:22:00,
2013-02-28 15:32:00,71.0,49.0,29.92,WSW,257,0.0,0.0,45,0.00,,,0.79,,2013-02-28 20:32:00,
2013-02-28 15:42:00,71.0,49.0,29.92,WSW,257,0.0,0.0,45,0.00,,,0.79,,2013-02-28 20:42:00,
2013-02-28 15:52:00,71.0,49.0,29.92,NNW,338,2.0,3.0,46,0.00,,,0.79,,2013-02-28 20:52:00,
2013-02-28 16:02:00,72.0,51.0,29.92,SE,134,1.0,3.0,47,0.00,,,0.78,,2013-02-28 21:02:00,
2013-02-28 16:11:00,72.0,51.0,29.92,SE,134,1.0,3.0,47,0.00,,,0.78,,2013-02-28 21:11:00,
2013-02-28 16:22:00,72.0,46.0,29.91,WSW,256,1.0,6.0,39,0.00,,,0.75,,2013-02-28 21:22:00,
2013-02-28 16:32:00,72.0,48.0,29.90,WNW,298,2.0,3.0,42,0.00,,,0.68,,2013-02-28 21:32:00,
2013-02-28 16:42:00,72.0,48.0,29.90,WNW,298,2.0,3.0,42,0.00,,,0.68,,2013-02-28 21:42:00,
2013-02-28 16:52:00,72.0,47.0,29.91,SSW,202,2.0,5.0,41,0.00,,,0.55,,2013-02-28 21:52:00,
2013-02-28 17:01:00,73.0,50.0,29.91,SSW,202,1.0,2.0,44,0.00,,,0.50,,2013-02-28 22:01:00,
2013-02-28 17:11:00,70.0,51.0,29.91,NW,310,0.0,3.0,51,0.00,,,0.48,,2013-02-28 22:11:00,
2013-02-28 17:22:00,70.0,51.0,29.91,NW,310,0.0,3.0,51,0.00,,,0.48,,2013-02-28 22:22:00,
2013-02-28 17:32:00,73.0,50.0,29.91,WSW,257,2.0,3.0,44,0.00,,,0.46,,2013-02-28 22:32:00,
2013-02-28 17:42:00,73.0,50.0,29.91,WSW,257,2.0,3.0,44,0.00,,,0.46,,2013-02-28 22:42:00,
2013-02-28 17:52:00,73.0,48.0,29.91,West,276,2.0,5.0,41,0.00,,,0.43,,2013-02-28 22:52:00,
2013-02-28 18:01:00,72.0,48.0,29.92,WSW,255,3.0,5.0,42,0.00,,,0.41,,2013-02-28 23:01:00,
2013-02-28 18:11:00,69.0,49.0,29.92,SW,226,2.0,3.0,49,0.00,,,0.40,,2013-02-28 23:11:00,
2013-02-28 18:22:00,69.0,49.0,29.92,SW,226,2.0,3.0,49,0.00,,,0.40,,2013-02-28 23:22:00,
2013-02-28 18:32:00,67.0,50.0,29.92,WSW,239,1.0,2.0,54,0.00,,,0.40,,2013-02-28 23:32:00,
2013-02-28 18:42:00,67.0,50.0,29.92,WSW,239,1.0,2.0,54,0.00,,,0.40,,2013-02-28 23:42:00,
2013-02-28 18:53:00,66.0,50.0,29.92,SW,221,1.0,2.0,57,0.00,,,0.40,,2013-02-28 23:53:00,
2013-02-28 19:02:00,65.0,51.0,29.93,SSW,205,0.0,0.0,61,0.00,,,0.40,,2013-03-01 00:02:00,
2013-02-28 19:11:00,65.0,51.0,29.93,SSW,205,0.0,0.0,61,0.00,,,0.40,,2013-03-01 00:11:00,
2013-02-28 19:22:00,65.0,52.0,29.92,SSW,209,2.0,3.0,62,0.00,,,0.38,,2013-03-01 00:22:00,
2013-02-28 19:32:00,64.0,52.0,29.92,SSW,196,0.0,0.0,64,0.00,,,0.34,,2013-03-01 00:32:00,
2013-02-28 19:42:00,64.0,52.0,29.92,SSW,196,0.0,0.0,64,0.00,,,0.34,,2013-03-01 00:42:00,
2013-02-28 19:52:00,63.0,52.0,29.93,SW,218,0.0,0.0,67,0.00,,,0.32,,2013-03-01 00:52:00,
2013-02-28 20:01:00,63.0,52.0,29.93,SW,215,0.0,0.0,68,0.00,,,0.31,,2013-03-01 01:01:00,
2013-02-28 20:11:00,62.0,51.0,29.93,SW,225,2.0,3.0,68,0.00,,,0.31,,2013-03-01 01:11:00,
2013-02-28 20:21:00,62.0,51.0,29.93,SW,225,2.0,3.0,68,0.00,,,0.31,,2013-03-01 01:21:00,
2013-02-28 20:32:00,62.0,52.0,29.93,South,185,0.0,0.0,70,0.00,,,0.31,,2013-03-01 01:32:00,
2013-02-28 20:42:00,62.0,52.0,29.93,South,185,0.0,0.0,70,0.00,,,0.31,,2013-03-01 01:42:00,
2013-02-28 20:52:00,62.0,52.0,29.93,SSW,204,0.0,0.0,71,0.00,,,0.30,,2013-03-01 01:52:00,
2013-02-28 21:01:00,61.0,52.0,29.93,WSW,244,0.0,0.0,71,0.00,,,0.24,,2013-03-01 02:01:00,
2013-02-28 21:11:00,61.0,52.0,29.93,SSW,203,0.0,2.0,73,0.00,,,0.16,,2013-03-01 02:11:00,
2013-02-28 21:21:00,61.0,52.0,29.93,SSW,203,0.0,2.0,73,0.00,,,0.16,,2013-03-01 02:21:00,
2013-02-28 21:32:00,61.0,53.0,29.94,SW,216,0.0,2.0,74,0.00,,,0.07,,2013-03-01 02:32:00,
2013-02-28 21:42:00,61.0,53.0,29.94,SW,216,0.0,2.0,74,0.00,,,0.07,,2013-03-01 02:42:00,
2013-02-28 21:52:00,61.0,53.0,29.94,SW,225,1.0,3.0,76,0.00,,,0.02,,2013-03-01 02:52:00,
2013-02-28 22:02:00,60.0,53.0,29.95,SW,234,0.0,2.0,77,0.00,,,0.00,,2013-03-01 03:02:00,
2013-02-28 22:11:00,61.0,54.0,29.95,SW,235,1.0,3.0,78,0.00,,,0.00,,2013-03-01 03:11:00,
2013-02-28 22:21:00,61.0,54.0,29.95,SW,235,1.0,3.0,78,0.00,,,0.00,,2013-03-01 03:21:00,
2013-02-28 22:32:00,62.0,54.0,29.94,WSW,240,3.0,3.0,76,0.00,,,0.00,,2013-03-01 03:32:00,
2013-02-28 22:42:00,62.0,54.0,29.94,WSW,240,3.0,3.0,76,0.00,,,0.00,,2013-03-01 03:42:00,
2013-02-28 22:52:00,63.0,55.0,29.94,SW,220,3.0,3.0,75,0.00,,,0.00,,2013-03-01 03:52:00,
2013-02-28 23:01:00,63.0,55.0,29.94,NW,306,3.0,5.0,75,0.00,,,0.00,,2013-03-01 04:01:00,
2013-02-28 23:11:00,63.0,55.0,29.94,NW,306,3.0,5.0,75,0.00,,,0.00,,2013-03-01 04:11:00,
2013-02-28 23:21:00,62.0,54.0,29.94,South,190,0.0,0.0,75,0.00,,,0.00,,2013-03-01 04:21:00,
2013-02-28 23:32:00,62.0,55.0,29.93,SW,219,1.0,2.0,77,0.00,,,0.00,,2013-03-01 04:32:00,
2013-02-28 23:42:00,62.0,55.0,29.93,SW,219,1.0,2.0,77,0.00,,,0.00,,2013-03-01 04:42:00,
2013-02-28 23:52:00,62.0,55.0,29.93,West,260,2.0,3.0,77,0.00,,,0.00,,2013-03-01 04:52:00,